Time;durP1;ratioP1;P1;durP2;ratioP2;P2;SDS_P1;SDS_P2;PMS_P1;PMS_P2;Temp;Humidity;BMP_temperature;BMP_pressure;BME280_temperature;BME280_humidity;BME280_pressure;Samples;Min_cycle;Max_cycle;Signal;HPM_P1;HPM_P2
2023/11/25 00:00:22;;;;;;;18.08;3.05;;;;;;;2.95;100.00;101546.63;5073144;28;20044;-75
2023/11/25 00:02:50;;;;;;;17.52;2.17;;;;;;;2.98;100.00;101546.47;5072884;28;20437;-78
2023/11/25 00:05:16;;;;;;;17.52;2.35;;;;;;;2.98;100.00;101541.22;5090950;28;20028;-76
2023/11/25 00:07:42;;;;;;;35.85;2.60;;;;;;;3.01;100.00;101545.47;5090375;28;20874;-76
2023/11/25 00:10:08;;;;;;;15.20;2.75;;;;;;;2.99;100.00;101545.56;5090658;28;20019;-78
2023/11/25 00:12:34;;;;;;;18.40;3.00;;;;;;;2.92;100.00;101548.56;5090675;28;20111;-77
2023/11/25 00:15:00;;;;;;;16.70;2.53;;;;;;;2.86;100.00;101540.94;5090706;28;20104;-78
2023/11/25 00:17:28;;;;;;;24.33;3.00;;;;;;;2.80;100.00;101542.09;5090176;28;20428;-78
2023/11/25 00:19:55;;;;;;;19.50;2.95;;;;;;;2.77;100.00;101544.84;5090681;28;20104;-76
2023/11/25 00:22:21;;;;;;;23.45;3.33;;;;;;;2.73;100.00;101545.91;5090571;28;20028;-76
2023/11/25 00:24:48;;;;;;;25.30;3.50;;;;;;;2.71;100.00;101538.09;5090033;28;20036;-76
2023/11/25 00:27:14;;;;;;;36.13;5.20;;;;;;;2.71;100.00;101545.16;5090332;28;20036;-77
2023/11/25 00:29:40;;;;;;;25.75;3.92;;;;;;;2.68;100.00;101543.50;5089917;28;20032;-77
2023/11/25 00:32:07;;;;;;;29.45;3.95;;;;;;;2.66;100.00;101540.13;5090289;28;20107;-76
2023/11/25 00:34:32;;;;;;;20.33;3.15;;;;;;;2.64;100.00;101537.56;5071622;28;20161;-77
2023/11/25 00:36:58;;;;;;;33.15;4.05;;;;;;;2.68;100.00;101529.53;5072136;28;20055;-77
2023/11/25 00:39:23;;;;;;;24.15;3.67;;;;;;;2.72;100.00;101536.34;5072233;28;20032;-76
2023/11/25 00:41:49;;;;;;;25.52;3.17;;;;;;;2.81;100.00;101528.03;5089589;28;20047;-77
2023/11/25 00:44:14;;;;;;;28.23;3.53;;;;;;;2.89;100.00;101525.88;5089903;28;20038;-76
2023/11/25 00:46:40;;;;;;;27.88;4.13;;;;;;;3.04;100.00;101526.09;5090123;28;20190;-77
2023/11/25 00:49:06;;;;;;;21.23;3.20;;;;;;;3.25;100.00;101537.34;5090153;28;20409;-77
2023/11/25 00:51:31;;;;;;;17.50;3.78;;;;;;;3.63;100.00;101524.91;5089740;28;20128;-77
2023/11/25 00:53:57;;;;;;;21.35;3.03;;;;;;;3.88;100.00;101521.03;5071383;28;20143;-77
2023/11/25 00:56:23;;;;;;;30.65;3.28;;;;;;;4.05;100.00;101523.63;5089993;28;20044;-77
2023/11/25 00:58:48;;;;;;;14.13;1.90;;;;;;;4.19;100.00;101522.91;5089829;28;20035;-77
2023/11/25 01:01:14;;;;;;;26.25;2.88;;;;;;;4.31;100.00;101510.03;5071699;28;20032;-77
2023/11/25 01:03:39;;;;;;;24.55;3.22;;;;;;;4.38;100.00;101514.88;5089993;28;20100;-77
2023/11/25 01:06:08;;;;;;;22.42;3.25;;;;;;;4.47;100.00;101525.88;5089706;28;20067;-75
2023/11/25 01:08:34;;;;;;;27.70;3.70;;;;;;;4.46;100.00;101518.91;5089463;28;20044;-81
2023/11/25 01:10:59;;;;;;;15.20;2.90;;;;;;;4.48;100.00;101524.91;5090211;28;20490;-76
2023/11/25 01:13:25;;;;;;;17.55;2.80;;;;;;;4.57;100.00;101522.66;5089723;28;20028;-76
2023/11/25 01:15:54;;;;;;;17.73;3.33;;;;;;;4.64;100.00;101532.84;5089171;28;20047;-77
2023/11/25 01:18:19;;;;;;;22.95;3.30;;;;;;;4.67;100.00;101533.56;5089932;28;20032;-76
2023/11/25 01:20:45;;;;;;;24.20;2.80;;;;;;;4.70;100.00;101527.25;5089275;28;20031;-77
2023/11/25 01:23:10;;;;;;;29.73;3.80;;;;;;;4.67;100.00;101530.06;5089972;28;20444;-76
2023/11/25 01:25:36;;;;;;;30.00;3.63;;;;;;;4.64;100.00;101531.06;5089411;28;20028;-77
2023/11/25 01:28:05;;;;;;;20.85;2.92;;;;;;;4.65;100.00;101540.69;5071373;28;20184;-78
2023/11/25 01:30:33;;;;;;;24.15;3.00;;;;;;;4.69;100.00;101533.47;5089291;28;20041;-76
2023/11/25 01:33:06;;;;;;;23.90;2.65;;;;;;;4.77;100.00;101532.09;5054492;28;20131;-76
2023/11/25 01:35:32;;;;;;;20.23;3.20;;;;;;;4.85;100.00;101526.41;5089546;28;20096;-77
2023/11/25 01:37:58;;;;;;;16.55;3.13;;;;;;;4.93;100.00;101532.09;5070874;28;20165;-76
2023/11/25 01:40:26;;;;;;;19.70;2.63;;;;;;;4.95;100.00;101538.13;5090686;28;20115;-75
2023/11/25 01:42:57;;;;;;;28.10;3.58;;;;;;;4.96;100.00;101533.72;5095759;28;20107;-74
2023/11/25 01:45:24;;;;;;;22.92;3.38;;;;;;;4.90;100.00;101542.81;5078899;28;20043;-76
2023/11/25 01:47:52;;;;;;;25.88;3.10;;;;;;;4.79;100.00;101541.72;5097043;28;20036;-76
2023/11/25 01:50:17;;;;;;;25.92;3.13;;;;;;;4.71;100.00;101539.50;5096778;28;20032;-75
2023/11/25 01:52:43;;;;;;;20.92;3.28;;;;;;;4.77;100.00;101541.78;5078448;28;20029;-74
2023/11/25 01:55:09;;;;;;;23.70;3.65;;;;;;;4.85;100.00;101546.66;5077903;28;20058;-76
2023/11/25 01:57:34;;;;;;;22.15;3.03;;;;;;;4.94;100.00;101554.03;5096291;28;20487;-76
2023/11/25 02:00:07;;;;;;;14.30;2.63;;;;;;;4.96;100.00;101546.91;5096421;28;20107;-75
2023/11/25 02:02:35;;;;;;;12.30;2.03;;;;;;;4.95;100.00;101546.03;5097189;28;20070;-75
2023/11/25 02:05:01;;;;;;;12.52;2.00;;;;;;;4.90;100.00;101537.53;5078702;28;20039;-76
2023/11/25 02:07:26;;;;;;;16.52;2.17;;;;;;;4.77;100.00;101534.72;5096564;28;20101;-75
2023/11/25 02:09:52;;;;;;;15.88;2.47;;;;;;;4.67;100.00;101535.31;5096859;28;20032;-76
2023/11/25 02:12:17;;;;;;;13.43;2.35;;;;;;;4.57;100.00;101543.72;5096356;28;20032;-75
2023/11/25 02:14:42;;;;;;;12.27;2.15;;;;;;;4.50;100.00;101526.53;5095954;28;20024;-76
2023/11/25 02:17:09;;;;;;;23.20;1.95;;;;;;;4.46;100.00;101530.28;5096205;28;20031;-76
2023/11/25 02:19:35;;;;;;;29.88;3.47;;;;;;;4.43;100.00;101525.16;5095911;28;20444;-75
2023/11/25 02:22:00;;;;;;;23.83;3.00;;;;;;;4.33;100.00;101522.19;5078096;28;20040;-75
2023/11/25 02:24:26;;;;;;;27.10;3.28;;;;;;;4.30;100.00;101522.34;5078262;28;20035;-75
2023/11/25 02:27:01;;;;;;;18.63;3.17;;;;;;;4.27;100.00;101526.94;5095949;28;20036;-75
2023/11/25 02:29:28;;;;;;;12.35;2.38;;;;;;;4.33;100.00;101529.22;5095896;28;20476;-75
2023/11/25 02:31:53;;;;;;;16.52;2.13;;;;;;;4.35;100.00;101519.47;5095908;28;20044;-74
2023/11/25 02:34:20;;;;;;;12.95;2.15;;;;;;;4.36;100.00;101519.41;5096114;28;20432;-76
2023/11/25 02:36:46;;;;;;;18.42;2.55;;;;;;;4.43;100.00;101513.78;5095950;28;20032;-76
2023/11/25 02:39:11;;;;;;;18.52;1.90;;;;;;;4.47;100.00;101512.69;5095776;28;20357;-75
2023/11/25 02:41:40;;;;;;;13.23;2.13;;;;;;;4.51;100.00;101517.72;5095707;28;20032;-75
2023/11/25 02:44:07;;;;;;;8.50;1.73;;;;;;;4.57;100.00;101511.25;5095781;28;20115;-74
2023/11/25 02:46:33;;;;;;;11.48;1.98;;;;;;;4.59;100.00;101512.88;5095605;28;20040;-76
2023/11/25 02:48:59;;;;;;;11.75;1.70;;;;;;;4.58;100.00;101511.19;5095459;28;20035;-76
2023/11/25 02:51:24;;;;;;;13.50;1.70;;;;;;;4.58;100.00;101507.69;5095455;28;20066;-74
2023/11/25 02:53:50;;;;;;;5.90;1.60;;;;;;;4.64;100.00;101502.06;5095292;28;20090;-76
2023/11/25 02:56:15;;;;;;;14.80;1.90;;;;;;;4.65;100.00;101503.78;5095536;28;20368;-74
2023/11/25 02:58:42;;;;;;;11.65;1.98;;;;;;;4.68;100.00;101500.13;5095414;28;20039;-73
2023/11/25 03:01:08;;;;;;;22.77;2.72;;;;;;;4.72;100.00;101504.31;5095490;28;20424;-74
2023/11/25 03:03:36;;;;;;;17.75;2.40;;;;;;;4.70;100.00;101495.59;5077455;28;20173;-75
2023/11/25 03:06:05;;;;;;;8.82;2.00;;;;;;;4.70;100.00;101492.97;5095221;28;20055;-74
2023/11/25 03:08:33;;;;;;;10.70;1.85;;;;;;;4.69;100.00;101494.78;5095788;28;20040;-75
2023/11/25 03:10:58;;;;;;;21.60;1.67;;;;;;;4.66;100.00;101488.78;5095211;28;20032;-75
2023/11/25 03:13:25;;;;;;;12.02;2.47;;;;;;;4.58;100.00;101487.47;5076984;28;20036;-75
2023/11/25 03:15:50;;;;;;;10.45;1.67;;;;;;;4.63;100.00;101487.19;5095171;28;20026;-75
2023/11/25 03:18:15;;;;;;;10.93;1.85;;;;;;;4.74;100.00;101486.59;5094976;28;20039;-75
2023/11/25 03:20:41;;;;;;;14.07;1.95;;;;;;;4.82;100.00;101483.53;5095060;28;20102;-75
2023/11/25 03:23:09;;;;;;;12.43;1.90;;;;;;;4.93;100.00;101497.81;5094903;28;20107;-75
2023/11/25 03:25:34;;;;;;;12.52;2.28;;;;;;;4.90;100.00;101516.44;5095421;28;20032;-75
2023/11/25 03:28:04;;;;;;;13.80;2.42;;;;;;;4.61;100.00;101511.94;5095261;28;20032;-76
2023/11/25 03:30:30;;;;;;;9.82;2.20;;;;;;;4.28;100.00;101500.50;5094850;28;20038;-74
2023/11/25 03:32:56;;;;;;;15.32;2.42;;;;;;;4.09;100.00;101507.69;5094944;28;20024;-76
2023/11/25 03:35:22;;;;;;;22.17;2.60;;;;;;;4.00;100.00;101519.53;5094669;28;20480;-76
2023/11/25 03:37:48;;;;;;;31.13;3.28;;;;;;;3.92;100.00;101516.47;5076735;28;20024;-76
2023/11/25 03:40:15;;;;;;;23.55;2.70;;;;;;;3.86;100.00;101522.91;5095280;28;20042;-76
2023/11/25 03:42:42;;;;;;;17.92;3.38;;;;;;;3.82;100.00;101529.25;5060334;28;20138;-76
2023/11/25 03:45:08;;;;;;;16.90;3.20;;;;;;;3.76;100.00;101532.19;5094543;28;20105;-77
2023/11/25 03:47:34;;;;;;;20.90;2.83;;;;;;;3.74;100.00;101523.53;5076995;28;20395;-77
2023/11/25 03:49:59;;;;;;;22.70;2.88;;;;;;;3.67;100.00;101515.94;5076148;28;20032;-77
2023/11/25 03:52:24;;;;;;;22.00;3.35;;;;;;;3.72;100.00;101518.34;5094066;28;20024;-76
2023/11/25 03:54:50;;;;;;;12.32;2.25;;;;;;;3.82;100.00;101522.22;5093982;28;20056;-76
2023/11/25 03:57:15;;;;;;;18.17;2.20;;;;;;;3.82;100.00;101540.66;5094219;28;20093;-75
2023/11/25 03:59:40;;;;;;;11.73;1.83;;;;;;;3.89;100.00;101543.78;5076898;28;20024;-77
2023/11/25 04:02:06;;;;;;;10.18;1.35;;;;;;;3.96;100.00;101554.88;5094105;28;20077;-76
2023/11/25 04:04:32;;;;;;;14.80;1.70;;;;;;;3.94;100.00;101544.44;5093918;28;20091;-76
2023/11/25 04:06:58;;;;;;;18.98;1.77;;;;;;;3.92;100.00;101537.53;5094178;28;20067;-76
2023/11/25 04:09:24;;;;;;;8.48;1.50;;;;;;;3.88;100.00;101531.56;5092799;28;20056;-77
2023/11/25 04:11:50;;;;;;;13.98;1.67;;;;;;;3.82;100.00;101535.38;5094136;28;20032;-77
2023/11/25 04:14:16;;;;;;;15.80;1.60;;;;;;;3.71;100.00;101537.69;5093608;28;20119;-75
2023/11/25 04:16:43;;;;;;;10.27;2.20;;;;;;;3.62;100.00;101539.00;5075599;28;20464;-74
2023/11/25 04:19:09;;;;;;;11.38;1.38;;;;;;;3.54;100.00;101541.19;5076129;28;20036;-75
2023/11/25 04:21:38;;;;;;;10.38;1.40;;;;;;;3.51;100.00;101542.19;5075833;28;20039;-77
2023/11/25 04:24:04;;;;;;;18.17;1.83;;;;;;;3.53;100.00;101545.56;5076165;28;20034;-78
2023/11/25 04:26:30;;;;;;;15.45;1.42;;;;;;;3.58;100.00;101542.72;5093814;28;20032;-76
2023/11/25 04:28:56;;;;;;;11.77;1.80;;;;;;;3.63;100.00;101547.78;5093675;28;20452;-76
2023/11/25 04:31:21;;;;;;;11.43;1.30;;;;;;;3.69;100.00;101523.78;5093942;28;20080;-75
2023/11/25 04:33:47;;;;;;;13.10;2.80;;;;;;;3.67;100.00;101520.34;5094074;28;20036;-76
2023/11/25 04:36:14;;;;;;;15.70;2.53;;;;;;;3.63;100.00;101509.13;5075411;28;20047;-76
2023/11/25 04:38:40;;;;;;;18.67;2.25;;;;;;;3.69;100.00;101521.13;5093877;28;20361;-77
2023/11/25 04:41:05;;;;;;;15.52;2.13;;;;;;;3.73;100.00;101513.91;5093553;28;20024;-77
2023/11/25 04:43:30;;;;;;;17.48;2.22;;;;;;;3.78;100.00;101507.50;5093267;28;20516;-75
2023/11/25 04:45:56;;;;;;;17.25;2.42;;;;;;;3.79;100.00;101501.31;5093408;28;20044;-75
2023/11/25 04:48:22;;;;;;;15.30;2.08;;;;;;;3.78;100.00;101504.88;5093704;28;20124;-75
2023/11/25 04:50:47;;;;;;;17.92;2.42;;;;;;;3.73;100.00;101506.88;5093585;28;20391;-76
2023/11/25 04:53:13;;;;;;;18.25;2.15;;;;;;;3.66;100.00;101514.25;5093334;28;20036;-75
2023/11/25 04:55:38;;;;;;;19.77;1.90;;;;;;;3.61;100.00;101510.13;5075762;28;20097;-75
2023/11/25 04:58:04;;;;;;;22.70;2.67;;;;;;;3.52;100.00;101508.81;5093560;28;20035;-74
2023/11/25 05:00:29;;;;;;;10.70;1.88;;;;;;;3.52;100.00;101504.41;5093980;28;20027;-74
2023/11/25 05:02:55;;;;;;;10.27;2.30;;;;;;;3.58;100.00;101503.22;5093045;28;20039;-74
2023/11/25 05:05:21;;;;;;;18.60;2.35;;;;;;;3.70;100.00;101486.84;5075291;28;20074;-76
2023/11/25 05:07:47;;;;;;;12.98;2.30;;;;;;;3.86;100.00;101484.25;5093321;28;20107;-74
2023/11/25 05:10:12;;;;;;;7.90;2.17;;;;;;;4.03;100.00;101475.47;5093259;28;20559;-75
2023/11/25 05:12:41;;;;;;;13.85;1.73;;;;;;;4.22;100.00;101467.44;5093884;28;20085;-75
2023/11/25 05:15:09;;;;;;;13.90;2.60;;;;;;;4.40;100.00;101485.81;5093576;28;20063;-74
2023/11/25 05:17:34;;;;;;;15.38;2.15;;;;;;;4.49;100.00;101477.41;5097580;28;20384;-75
2023/11/25 05:19:59;;;;;;;10.65;2.53;;;;;;;4.51;100.00;101478.19;5079034;28;20028;-76
2023/11/25 05:22:28;;;;;;;16.58;2.05;;;;;;;4.53;100.00;101483.38;5097114;28;20391;-76
2023/11/25 05:24:54;;;;;;;9.10;1.20;;;;;;;4.59;100.00;101496.22;5079543;28;20040;-76
2023/11/25 05:27:20;;;;;;;8.07;1.67;;;;;;;4.65;100.00;101502.94;5097116;28;20024;-76
2023/11/25 05:29:45;;;;;;;9.85;1.40;;;;;;;4.55;100.00;101508.72;5079122;28;20470;-75
2023/11/25 05:32:12;;;;;;;7.68;2.15;;;;;;;4.34;100.00;101496.69;5096957;28;20028;-77
2023/11/25 05:34:39;;;;;;;11.07;1.75;;;;;;;4.10;100.00;101502.31;5096829;28;20060;-75
2023/11/25 05:37:05;;;;;;;12.43;1.17;;;;;;;3.93;100.00;101502.38;5096982;28;20035;-75
2023/11/25 05:39:30;;;;;;;9.65;1.25;;;;;;;3.78;100.00;101494.34;5079270;28;20106;-76
2023/11/25 05:41:55;;;;;;;10.10;1.50;;;;;;;3.67;100.00;101492.25;5096811;28;20114;-75
2023/11/25 05:44:21;;;;;;;9.80;1.60;;;;;;;3.57;100.00;101491.03;5096554;28;20044;-76
2023/11/25 05:46:46;;;;;;;10.82;1.08;;;;;;;3.46;100.00;101488.94;5096819;28;20468;-75
2023/11/25 05:49:12;;;;;;;15.80;1.98;;;;;;;3.37;100.00;101475.38;5096044;28;20049;-74
2023/11/25 05:51:39;;;;;;;8.07;1.40;;;;;;;3.28;100.00;101476.69;5096414;28;20498;-74
2023/11/25 05:54:05;;;;;;;17.95;1.65;;;;;;;3.25;100.00;101471.59;5096881;28;20051;-74
2023/11/25 05:56:31;;;;;;;14.75;1.40;;;;;;;3.24;100.00;101477.75;5097312;28;20367;-75
2023/11/25 05:58:57;;;;;;;11.45;1.52;;;;;;;3.23;100.00;101462.94;5097165;28;20028;-75
2023/11/25 06:01:23;;;;;;;11.77;1.77;;;;;;;3.22;100.00;101459.44;5096204;28;20032;-75
2023/11/25 06:03:52;;;;;;;10.82;1.38;;;;;;;3.25;100.00;101450.53;5096844;28;20036;-76
2023/11/25 06:06:21;;;;;;;8.82;1.42;;;;;;;3.31;100.00;101440.59;5096467;28;20065;-76
2023/11/25 06:08:50;;;;;;;10.98;1.55;;;;;;;3.39;100.00;101429.66;5078865;28;20035;-75
2023/11/25 06:11:22;;;;;;;6.25;1.13;;;;;;;3.49;100.00;101433.53;5096868;28;20036;-74
2023/11/25 06:13:48;;;;;;;13.45;1.40;;;;;;;3.65;100.00;101430.09;5096349;28;20484;-74
2023/11/25 06:16:14;;;;;;;14.68;2.70;;;;;;;3.83;100.00;101430.91;5096471;28;20071;-75
2023/11/25 06:18:39;;;;;;;15.80;2.08;;;;;;;4.05;100.00;101435.91;5096164;28;20120;-75
2023/11/25 06:21:05;;;;;;;13.05;1.80;;;;;;;4.27;100.00;101445.25;5096392;28;20118;-77
2023/11/25 06:23:32;;;;;;;23.90;2.85;;;;;;;4.50;100.00;101458.03;5095730;28;20395;-75
2023/11/25 06:25:57;;;;;;;11.30;2.15;;;;;;;4.74;100.00;101460.22;5077707;28;20039;-75
2023/11/25 06:28:24;;;;;;;18.25;2.58;;;;;;;4.83;100.00;101453.59;5095944;28;20110;-78
2023/11/25 06:30:53;;;;;;;14.32;1.75;;;;;;;4.82;100.00;101450.13;5096539;28;20032;-77
2023/11/25 06:33:24;;;;;;;17.33;2.53;;;;;;;4.74;100.00;101441.78;5095783;28;20341;-79
2023/11/25 06:35:50;;;;;;;22.25;2.55;;;;;;;4.70;100.00;101449.03;5096762;28;20028;-76
2023/11/25 06:38:15;;;;;;;14.10;2.15;;;;;;;4.61;100.00;101444.25;5095883;28;20487;-77
2023/11/25 06:40:40;;;;;;;14.55;2.33;;;;;;;4.62;100.00;101447.75;5095453;28;20039;-75
2023/11/25 06:43:06;;;;;;;21.95;2.45;;;;;;;4.62;100.00;101445.13;5095710;28;20036;-76
2023/11/25 06:45:33;;;;;;;7.63;1.50;;;;;;;4.62;100.00;101432.78;5095712;28;20043;-75
2023/11/25 06:47:59;;;;;;;5.22;0.88;;;;;;;4.69;100.00;101436.78;5095643;28;20036;-75
2023/11/25 06:50:24;;;;;;;10.60;1.70;;;;;;;4.74;100.00;101433.88;5095625;28;20486;-76
2023/11/25 06:52:50;;;;;;;9.77;1.48;;;;;;;4.72;100.00;101433.13;5095668;28;20134;-76
2023/11/25 06:55:17;;;;;;;10.95;1.90;;;;;;;4.74;100.00;101433.88;5076871;28;20048;-76
2023/11/25 06:57:42;;;;;;;11.40;1.83;;;;;;;4.77;100.00;101428.41;5077291;28;20040;-77
2023/11/25 07:00:10;;;;;;;14.20;1.85;;;;;;;4.87;100.00;101419.06;5095697;28;20478;-76
2023/11/25 07:02:35;;;;;;;14.93;1.80;;;;;;;4.95;100.00;101408.91;5095763;28;20081;-75
2023/11/25 07:05:01;;;;;;;13.90;1.98;;;;;;;5.02;100.00;101419.97;5095540;28;20040;-75
2023/11/25 07:07:26;;;;;;;11.88;2.30;;;;;;;5.11;100.00;101432.59;5077139;28;20101;-76
2023/11/25 07:09:52;;;;;;;19.35;2.90;;;;;;;5.27;100.00;101450.22;5077685;28;20419;-76
2023/11/25 07:12:18;;;;;;;17.48;2.60;;;;;;;5.26;100.00;101453.78;5095138;28;20071;-78
2023/11/25 07:14:43;;;;;;;12.48;2.15;;;;;;;5.11;100.00;101460.78;5095030;28;20109;-75
2023/11/25 07:17:11;;;;;;;11.45;2.28;;;;;;;4.89;100.00;101456.72;5076916;28;20053;-75
2023/11/25 07:19:39;;;;;;;11.55;2.10;;;;;;;4.68;100.00;101447.41;5095138;28;20040;-75
2023/11/25 07:22:04;;;;;;;12.70;1.83;;;;;;;4.52;100.00;101448.28;5095293;28;20038;-77
2023/11/25 07:24:31;;;;;;;21.05;3.22;;;;;;;4.44;100.00;101454.91;5094756;28;20131;-75
2023/11/25 07:27:04;;;;;;;15.07;2.17;;;;;;;4.38;100.00;101454.28;5095178;28;20032;-75
2023/11/25 07:29:32;;;;;;;14.35;1.77;;;;;;;4.39;100.00;101455.16;5095296;28;20028;-76
2023/11/25 07:32:01;;;;;;;17.75;2.40;;;;;;;4.36;100.00;101469.34;5076725;28;20473;-76
2023/11/25 07:34:33;;;;;;;15.25;1.75;;;;;;;4.32;100.00;101466.94;5094894;28;20472;-75
2023/11/25 07:36:59;;;;;;;9.52;1.77;;;;;;;4.31;100.00;101454.69;5095192;28;20036;-76
2023/11/25 07:39:29;;;;;;;10.77;1.70;;;;;;;4.30;100.00;101455.63;5093789;28;20470;-77
2023/11/25 07:41:57;;;;;;;7.93;1.55;;;;;;;4.27;100.00;101454.03;5094942;28;20051;-77
2023/11/25 07:44:23;;;;;;;10.18;1.65;;;;;;;4.33;100.00;101450.19;5094564;28;20028;-76
2023/11/25 07:46:49;;;;;;;8.52;1.45;;;;;;;4.40;100.00;101447.16;5076257;28;20032;-76
2023/11/25 07:49:15;;;;;;;12.02;1.73;;;;;;;4.52;100.00;101458.81;5094764;28;20036;-76
2023/11/25 07:51:41;;;;;;;9.35;1.55;;;;;;;4.67;100.00;101456.25;5094090;28;20108;-75
2023/11/25 07:54:08;;;;;;;13.65;1.90;;;;;;;4.87;100.00;101449.84;5094132;28;20443;-74
2023/11/25 07:56:34;;;;;;;13.43;2.00;;;;;;;5.00;100.00;101442.94;5094411;28;20036;-75
2023/11/25 07:58:59;;;;;;;12.82;1.58;;;;;;;5.07;100.00;101452.19;5094340;28;20028;-75
2023/11/25 08:01:26;;;;;;;13.05;2.45;;;;;;;5.14;100.00;101446.59;5094829;28;20063;-76
2023/11/25 08:03:52;;;;;;;8.30;1.52;;;;;;;5.21;100.00;101432.06;5094609;28;20089;-73
2023/11/25 08:06:18;;;;;;;8.55;2.13;;;;;;;5.24;100.00;101424.84;5094100;28;20488;-75
2023/11/25 08:08:45;;;;;;;14.90;1.60;;;;;;;5.27;100.00;101445.75;5076676;28;20365;-77
2023/11/25 08:11:11;;;;;;;11.18;1.77;;;;;;;5.23;100.00;101433.69;5094385;28;20456;-76
2023/11/25 08:13:37;;;;;;;19.85;2.63;;;;;;;5.19;100.00;101448.00;5093828;28;20034;-78
2023/11/25 08:16:04;;;;;;;11.50;1.73;;;;;;;5.17;100.00;101460.44;5093854;28;20115;-74
2023/11/25 08:18:30;;;;;;;13.45;2.08;;;;;;;5.20;100.00;101457.59;5076188;28;20032;-75
2023/11/25 08:20:56;;;;;;;12.73;1.63;;;;;;;5.26;100.00;101449.34;5093742;28;20063;-75
2023/11/25 08:23:21;;;;;;;13.57;1.40;;;;;;;5.32;100.00;101444.66;5059459;28;20039;-75
2023/11/25 08:25:47;;;;;;;10.00;1.70;;;;;;;5.43;100.00;101447.50;5075563;28;20060;-76
2023/11/25 08:28:12;;;;;;;11.60;1.88;;;;;;;5.54;100.00;101452.13;5075728;28;20047;-76
2023/11/25 08:30:38;;;;;;;15.88;1.67;;;;;;;5.61;100.00;101464.03;5093650;28;20051;-74
2023/11/25 08:33:04;;;;;;;18.17;2.33;;;;;;;5.58;100.00;101478.28;5093342;28;20107;-75
2023/11/25 08:35:29;;;;;;;12.00;1.48;;;;;;;5.26;100.00;101466.97;5075605;28;20024;-76
2023/11/25 08:37:55;;;;;;;6.22;1.30;;;;;;;4.92;100.00;101461.81;5093309;28;20094;-85
2023/11/25 08:40:21;;;;;;;8.05;1.40;;;;;;;4.66;100.00;101462.44;5075324;28;20035;-75
2023/11/25 08:42:49;;;;;;;7.97;1.50;;;;;;;4.48;100.00;101456.41;5075600;28;20032;-76
2023/11/25 08:45:15;;;;;;;7.70;1.27;;;;;;;4.30;100.00;101450.34;5094331;28;20036;-78
2023/11/25 08:47:42;;;;;;;8.60;1.48;;;;;;;4.21;100.00;101452.56;5093387;28;20357;-77
2023/11/25 08:50:10;;;;;;;11.70;1.92;;;;;;;4.23;100.00;101452.50;5093382;28;20024;-77
2023/11/25 08:52:38;;;;;;;12.75;1.65;;;;;;;4.34;100.00;101459.81;5093682;28;20126;-77
2023/11/25 08:55:08;;;;;;;20.33;2.22;;;;;;;4.44;100.00;101458.38;5093224;28;20063;-75
2023/11/25 08:57:36;;;;;;;17.13;1.92;;;;;;;4.49;100.00;101458.94;5075811;28;20124;-75
2023/11/25 09:00:14;;;;;;;11.93;2.00;;;;;;;4.57;100.00;101471.72;5093256;28;20437;-78
2023/11/25 09:02:42;;;;;;;16.73;2.13;;;;;;;4.90;100.00;101468.97;5093399;28;20028;-80
2023/11/25 09:05:07;;;;;;;13.65;2.38;;;;;;;5.05;100.00;101469.06;5093362;28;20028;-76
2023/11/25 09:07:33;;;;;;;9.10;1.75;;;;;;;5.05;100.00;101476.97;5093403;28;20039;-76
2023/11/25 09:09:59;;;;;;;15.65;2.38;;;;;;;5.12;100.00;101470.41;5093193;28;20479;-77
2023/11/25 09:12:24;;;;;;;15.70;2.08;;;;;;;5.20;100.00;101476.06;5075428;28;20486;-77
2023/11/25 09:14:49;;;;;;;17.52;2.38;;;;;;;5.29;100.00;101477.34;5074615;28;20036;-76
2023/11/25 09:17:15;;;;;;;12.15;1.92;;;;;;;5.34;100.00;101472.63;5058706;28;20064;-76
2023/11/25 09:19:41;;;;;;;11.13;1.75;;;;;;;5.38;100.00;101454.84;5075117;28;20036;-76
2023/11/25 09:22:07;;;;;;;10.63;1.85;;;;;;;5.45;100.00;101461.47;5075021;28;20468;-76
2023/11/25 09:24:33;;;;;;;13.00;2.13;;;;;;;5.54;100.00;101463.56;5075050;28;20046;-74
2023/11/25 09:26:58;;;;;;;16.38;2.08;;;;;;;5.62;100.00;101457.81;5075133;28;20464;-76
2023/11/25 09:29:24;;;;;;;23.15;1.88;;;;;;;5.71;100.00;101451.13;5093316;28;20375;-77
2023/11/25 09:31:49;;;;;;;17.60;2.28;;;;;;;5.80;100.00;101459.34;5092998;28;20024;-76
2023/11/25 09:34:15;;;;;;;16.63;2.17;;;;;;;5.92;100.00;101463.03;5092992;28;20467;-75
2023/11/25 09:36:40;;;;;;;16.83;2.63;;;;;;;6.03;100.00;101464.19;5093366;28;20040;-76
2023/11/25 09:39:09;;;;;;;11.63;2.20;;;;;;;6.12;100.00;101461.84;5093233;28;20032;-74
2023/11/25 09:41:35;;;;;;;17.33;2.10;;;;;;;6.24;100.00;101460.22;5075547;28;20034;-76
2023/11/25 09:44:05;;;;;;;16.60;2.22;;;;;;;6.56;100.00;101462.63;5093177;28;20115;-74
2023/11/25 09:46:32;;;;;;;15.32;2.50;;;;;;;6.81;100.00;101490.16;5092928;28;20398;-74
2023/11/25 09:48:57;;;;;;;6.88;1.70;;;;;;;6.68;100.00;101501.50;5093039;28;20040;-75
2023/11/25 09:51:26;;;;;;;14.07;2.67;;;;;;;6.32;100.00;101502.88;5092813;28;20028;-75
2023/11/25 09:53:56;;;;;;;12.20;1.95;;;;;;;6.00;100.00;101513.63;5092702;28;20028;-75
2023/11/25 09:56:22;;;;;;;15.40;2.78;;;;;;;5.47;100.00;101507.09;5093004;28;20123;-74
2023/11/25 09:58:49;;;;;;;18.25;1.98;;;;;;;5.11;100.00;101485.38;5092869;28;20107;-78
2023/11/25 10:01:14;;;;;;;10.82;1.58;;;;;;;4.85;100.00;101486.88;5093650;28;20032;-74
2023/11/25 10:03:45;;;;;;;12.55;1.85;;;;;;;4.74;100.00;101482.16;5096627;28;20032;-74
2023/11/25 10:06:11;;;;;;;13.13;2.07;;;;;;;4.71;100.00;101484.97;5096704;28;20036;-75
2023/11/25 10:08:36;;;;;;;18.27;1.77;;;;;;;4.73;100.00;101476.97;5078182;28;20343;-76
2023/11/25 10:11:05;;;;;;;20.15;1.65;;;;;;;4.75;100.00;101480.41;5096233;28;20539;-74
2023/11/25 10:13:42;;;;;;;12.07;2.00;;;;;;;4.76;100.00;101474.16;5096106;28;20035;-74
2023/11/25 10:16:09;;;;;;;11.55;2.00;;;;;;;4.75;100.00;101489.16;5078309;28;20078;-75
2023/11/25 10:18:38;;;;;;;13.50;2.60;;;;;;;4.81;100.00;101485.31;5096182;28;20046;-75
2023/11/25 10:21:07;;;;;;;19.55;3.22;;;;;;;4.94;100.00;101496.03;5096327;28;20042;-75
2023/11/25 10:23:34;;;;;;;12.48;2.15;;;;;;;5.14;100.00;101488.78;5096067;28;20040;-75
2023/11/25 10:26:05;;;;;;;18.52;2.17;;;;;;;5.29;100.00;101477.34;5095992;28;20021;-74
2023/11/25 10:28:33;;;;;;;24.88;2.95;;;;;;;5.44;100.00;101476.44;5096565;28;20032;-74
2023/11/25 10:31:05;;;;;;;14.68;1.80;;;;;;;5.64;100.00;101480.56;5095783;28;20029;-75
2023/11/25 10:33:30;;;;;;;27.13;2.33;;;;;;;5.83;100.00;101469.72;5095735;28;20043;-74
2023/11/25 10:35:56;;;;;;;14.25;2.08;;;;;;;6.04;100.00;101455.34;5095714;28;20418;-74
2023/11/25 10:38:26;;;;;;;20.20;2.22;;;;;;;6.26;100.00;101454.84;5095838;28;20081;-74
2023/11/25 10:40:56;;;;;;;13.00;2.50;;;;;;;6.55;100.00;101462.72;5077693;28;20405;-76
2023/11/25 10:43:22;;;;;;;23.20;3.75;;;;;;;6.81;100.00;101453.13;5077543;28;20036;-75
2023/11/25 10:45:47;;;;;;;23.33;2.75;;;;;;;7.01;100.00;101457.09;5095547;28;20123;-76
2023/11/25 10:48:14;;;;;;;17.73;3.83;;;;;;;7.22;100.00;101458.31;5060427;28;20446;-76
2023/11/25 10:50:45;;;;;;;17.13;2.75;;;;;;;7.38;100.00;101455.50;5095401;28;20028;-74
2023/11/25 10:53:15;;;;;;;22.35;4.05;;;;;;;7.51;100.00;101459.97;5077415;28;20076;-74
2023/11/25 10:55:43;;;;;;;18.65;2.85;;;;;;;7.60;100.00;101469.97;5095464;28;20459;-74
2023/11/25 10:58:11;;;;;;;30.58;3.58;;;;;;;7.65;100.00;101461.69;5095408;28;20032;-74
2023/11/25 11:00:37;;;;;;;21.42;3.45;;;;;;;7.70;100.00;101456.91;5095925;28;20035;-74
2023/11/25 11:03:08;;;;;;;29.50;3.53;;;;;;;7.94;100.00;101457.03;5095146;28;20121;-74
2023/11/25 11:05:49;;;;;;;23.42;3.90;;;;;;;8.24;100.00;101448.72;5095441;28;20077;-75
2023/11/25 11:08:20;;;;;;;29.70;3.67;;;;;;;8.50;100.00;101438.09;5077461;28;20028;-76
2023/11/25 11:10:59;;;;;;;16.30;3.28;;;;;;;8.71;100.00;101443.63;5095391;28;20039;-75
2023/11/25 11:13:40;;;;;;;19.40;2.97;;;;;;;8.54;100.00;101474.06;5095191;28;20039;-74